Keene, Kentucky
Current Conditions -  °F | °C
As of 11:54 PM on Wednesday 22 Oct 2014 (Local Time) from KLEX Reporting Station
Overcast Overcast  
Wind Chill: 51°   Ceiling: 2700
Heat Index: 51°   Visibility: 10mi
Dew Point: 41°   Wind: 7mph
Humidity: 68%   Direction: 50°NE
Pressure: 30.25"   Gusts: NA
Location:  37.94°N, 84.64°W
Report Text: KLEX 230354Z 05006KT 10SM OVC027 11/05 A3025 RMK AO2 SLP242 T01060050
Loading
Personal Weather Stations






























Interactive Weather Map
Tropical Storm Tracking
New forecast layout! Learn more

10-Day Weather Forecast

Advertisements
Track Severe Weather on mobile